Airfield :
LOGIN :

Register | Disclaimer

   EN    FR    IT 

 










Legend :    VFR   Marginal VFR   IFR   Intensive IFR   Very Intensive IFR
Visi :
Ceiling :
>= 8 km
>= 3000ft
5 to 8 km
1000 to 3000 ft
1500m to 5 km
500 to 1000 ft
800 to 1500m
200 to 500 ft
< 800m
< 200 ft
Symbols :   Thunderstorms  Fog  Heavy snow  Heavy precipitations  Wind > 20 kt
SIGMETs :     Misc.  Thunderstorms  Icing  Turbulence  Mountain Waves  Volcanic Ashes







- Airport Elevation : 287 ft
- Download approach charts


LFRL - Lanveoc Poulmic

CURRENT METAR :
  • 262100Z AUTO 32008KT 1800 1100 R23/1400D R05/1600D BR VV/// 14/13 Q1017

EXPIRED METARs :
  • 262030Z AUTO 30007KT 0450 0350 R23/0400N R05/0550N FG VV/// 14/13 Q1017
  • 262000Z AUTO 28008KT 1200 1000 R23/1300N R05/1300U BCFG VV/// 14/13 Q1017
  • 261930Z AUTO 27008KT 0400 0300 R23/0350N R05/0500N FG VV/// 14/13 Q1017
  • 261900Z AUTO 27010KT 0600 0400 R23/0400D R05/0750D -DZ FG VV/// 14/14 Q1017
  • 261830Z AUTO 26009KT 2500 -DZ BR OVC002 14/14 Q1017

Expired Forecast.
No reported NOTAMs for that airfield.



MET'MAP, your aeronautical weather chart ! - Copyright ORBIFLY December 2007 - Disclaimer

ORBIFLY MET'MAP TEAM :

Programming & Development : Alexandra Zaïnal
Concept & Development : Baudouin d'Aumeries
Co-Development & Prog : Marc-Olivier Méhu
Technical & hardware support : Manuel Goepfert

Contact : metmap@orbifly.com




SOURCES & CREDITS :

   NOAA